Time;durP1;ratioP1;P1;durP2;ratioP2;P2;SDS_P1;SDS_P2;PMS_P1;PMS_P2;Temp;Humidity;BMP_temperature;BMP_pressure;BME280_temperature;BME280_humidity;BME280_pressure;Samples;Min_cycle;Max_cycle;Signal;HPM_P1;HPM_P2
2022/06/19 00:02:12;;;;;;;9.15;4.38;;;;;;;;;;4969122;28;20025;-74
2022/06/19 00:04:38;;;;;;;9.63;4.55;;;;;;;;;;4969165;28;20098;-74
2022/06/19 00:07:03;;;;;;;10.82;4.00;;;;;;;;;;4953676;28;20488;-73
2022/06/19 00:09:29;;;;;;;9.13;3.67;;;;;;;;;;4970451;28;20081;-73
2022/06/19 00:11:55;;;;;;;6.47;4.90;;;;;;;;;;4969113;28;20034;-73
2022/06/19 00:14:23;;;;;;;5.95;3.90;;;;;;;;;;4970583;28;20034;-74
2022/06/19 00:16:50;;;;;;;7.25;3.67;;;;;;;;;;4969115;28;20479;-73
2022/06/19 00:19:16;;;;;;;8.77;4.00;;;;;;;;;;4969155;28;20030;-73
2022/06/19 00:21:42;;;;;;;9.88;4.22;;;;;;;;;;4968943;28;20026;-73
2022/06/19 00:24:08;;;;;;;5.68;3.47;;;;;;;;;;4970593;28;20033;-73
2022/06/19 00:26:34;;;;;;;12.25;4.97;;;;;;;;;;4970452;28;20098;-74
2022/06/19 00:28:59;;;;;;;8.23;4.00;;;;;;;;;;4970844;28;20563;-73
2022/06/19 00:31:26;;;;;;;8.05;4.18;;;;;;;;;;4952769;28;20077;-74
2022/06/19 00:33:55;;;;;;;5.38;3.80;;;;;;;;;;4969207;28;20049;-73
2022/06/19 00:36:21;;;;;;;7.90;3.88;;;;;;;;;;4969060;28;20097;-74
2022/06/19 00:38:48;;;;;;;9.77;3.90;;;;;;;;;;4968920;28;20117;-73
2022/06/19 00:41:14;;;;;;;12.48;4.68;;;;;;;;;;4969050;28;20082;-74
2022/06/19 00:43:59;;;;;;;8.75;4.28;;;;;;;;;;4969850;28;20031;-74
2022/06/19 00:46:44;;;;;;;8.52;4.93;;;;;;;;;;4970089;28;20413;-74
2022/06/19 00:49:17;;;;;;;11.23;4.32;;;;;;;;;;4968672;28;20031;-73
2022/06/19 00:51:43;;;;;;;10.75;4.00;;;;;;;;;;4971191;28;20038;-73
2022/06/19 00:54:13;;;;;;;10.75;4.93;;;;;;;;;;4972340;28;20114;-74
2022/06/19 00:56:39;;;;;;;10.95;3.90;;;;;;;;;;4972101;28;20506;-74
2022/06/19 00:59:06;;;;;;;9.55;4.45;;;;;;;;;;4973769;28;20053;-74
2022/06/19 01:01:32;;;;;;;11.43;4.55;;;;;;;;;;4973319;28;20018;-74
2022/06/19 01:04:08;;;;;;;7.13;4.43;;;;;;;;;;4972390;28;20027;-74
2022/06/19 01:06:34;;;;;;;8.07;4.75;;;;;;;;;;4971852;28;20444;-74
2022/06/19 01:09:00;;;;;;;7.78;4.13;;;;;;;;;;4973649;28;20039;-73
2022/06/19 01:11:30;;;;;;;7.80;4.25;;;;;;;;;;4973121;28;20031;-73
2022/06/19 01:13:57;;;;;;;6.55;4.70;;;;;;;;;;4972005;28;20023;-73
2022/06/19 01:16:22;;;;;;;11.27;4.47;;;;;;;;;;4971903;28;20019;-73
2022/06/19 01:18:48;;;;;;;12.02;4.32;;;;;;;;;;4971957;28;20030;-73
2022/06/19 01:21:43;;;;;;;15.88;5.20;;;;;;;;;;4973570;28;20299;-73
2022/06/19 01:24:44;;;;;;;9.57;4.63;;;;;;;;;;4984859;28;20038;-74
2022/06/19 01:28:45;;;;;;;6.50;5.53;;;;;;;;;;4961957;28;20040;-73
2022/06/19 01:30:01;;;;;;;10.90;4.63;;;;;;;;;;4971890;28;20046;-73
2022/06/19 01:32:27;;;;;;;11.85;4.57;;;;;;;;;;4972667;28;20051;-73
2022/06/19 01:34:53;;;;;;;8.50;4.10;;;;;;;;;;4988071;28;20026;-73
2022/06/19 01:37:24;;;;;;;10.05;4.43;;;;;;;;;;4973105;28;20549;-73
2022/06/19 01:39:55;;;;;;;7.10;4.35;;;;;;;;;;4971561;28;20038;-72
2022/06/19 01:42:22;;;;;;;14.82;5.07;;;;;;;;;;4987773;28;20443;-73
2022/06/19 01:44:49;;;;;;;14.18;4.40;;;;;;;;;;4971232;28;20035;-73
2022/06/19 01:47:15;;;;;;;7.78;4.13;;;;;;;;;;4972821;28;20023;-72
2022/06/19 01:49:45;;;;;;;9.98;4.82;;;;;;;;;;4971064;28;20019;-73
2022/06/19 01:52:11;;;;;;;10.00;4.97;;;;;;;;;;4972338;28;20422;-73
2022/06/19 01:54:39;;;;;;;10.57;5.32;;;;;;;;;;4970864;28;20471;-74
2022/06/19 01:57:07;;;;;;;8.10;7.38;;;;;;;;;;4971139;28;20023;-74
2022/06/19 01:59:34;;;;;;;8.90;4.53;;;;;;;;;;4970771;28;20030;-74
2022/06/19 02:02:03;;;;;;;10.60;4.85;;;;;;;;;;4969851;28;20027;-71
2022/06/19 02:04:31;;;;;;;8.82;4.28;;;;;;;;;;4970737;28;20035;-74
2022/06/19 02:07:00;;;;;;;11.25;4.78;;;;;;;;;;4972690;28;20022;-73
2022/06/19 02:09:26;;;;;;;8.73;4.85;;;;;;;;;;4972146;28;20031;-72
2022/06/19 02:11:51;;;;;;;6.43;4.20;;;;;;;;;;4970741;28;20050;-73
2022/06/19 02:14:19;;;;;;;8.63;4.53;;;;;;;;;;4970906;28;20018;-73
2022/06/19 02:16:47;;;;;;;10.43;4.30;;;;;;;;;;4970407;28;20037;-73
2022/06/19 02:19:12;;;;;;;8.85;4.55;;;;;;;;;;4971893;28;20026;-73
2022/06/19 02:21:48;;;;;;;12.85;5.07;;;;;;;;;;4973412;28;20106;-73
2022/06/19 02:24:19;;;;;;;8.18;4.88;;;;;;;;;;4990032;28;20038;-73
2022/06/19 02:26:45;;;;;;;;;;;;;;;;;;5006497;28;20057;-74
2022/06/19 02:29:12;;;;;;;6.00;4.13;;;;;;;;;;4991414;28;19949;-73
2022/06/19 02:31:41;;;;;;;10.65;4.30;;;;;;;;;;5022142;28;20062;-74
2022/06/19 02:34:32;;;;;;;9.00;4.43;;;;;;;;;;4989911;28;20033;-74
2022/06/19 02:36:58;;;;;;;9.80;4.67;;;;;;;;;;4990991;28;20128;-74
2022/06/19 02:40:11;;;;;;;12.55;3.80;;;;;;;;;;4989625;28;20097;-73
2022/06/19 02:42:40;;;;;;;7.57;3.88;;;;;;;;;;4988714;28;20042;-72
2022/06/19 02:45:15;;;;;;;9.43;4.28;;;;;;;;;;4990849;28;20099;-73
2022/06/19 02:47:41;;;;;;;8.90;5.00;;;;;;;;;;4989354;28;20030;-74
2022/06/19 02:50:10;;;;;;;10.75;4.75;;;;;;;;;;4990657;28;20034;-73
2022/06/19 02:52:36;;;;;;;7.57;4.28;;;;;;;;;;4988918;28;20022;-74
2022/06/19 02:55:01;;;;;;;12.82;4.40;;;;;;;;;;4990576;28;20399;-73
2022/06/19 02:57:28;;;;;;;5.72;4.30;;;;;;;;;;4989195;28;20029;-73
2022/06/19 02:59:54;;;;;;;7.45;4.57;;;;;;;;;;4989299;28;20034;-73
2022/06/19 03:02:20;;;;;;;12.25;5.10;;;;;;;;;;4990760;28;20026;-74
2022/06/19 03:04:50;;;;;;;7.50;4.75;;;;;;;;;;4990821;28;20069;-74
2022/06/19 03:07:15;;;;;;;9.73;4.97;;;;;;;;;;4989445;28;20030;-74
2022/06/19 03:09:41;;;;;;;10.05;4.85;;;;;;;;;;4990503;28;20037;-74
2022/06/19 03:12:07;;;;;;;8.30;5.03;;;;;;;;;;4990873;28;20410;-72
2022/06/19 03:14:33;;;;;;;7.50;4.55;;;;;;;;;;4989126;28;20027;-73
2022/06/19 03:16:58;;;;;;;11.60;6.80;;;;;;;;;;4989142;28;20030;-72
2022/06/19 03:19:24;;;;;;;15.45;7.20;;;;;;;;;;4989130;28;20089;-74
2022/06/19 03:21:50;;;;;;;7.03;4.25;;;;;;;;;;4985193;28;20023;-73
2022/06/19 03:24:16;;;;;;;13.77;5.00;;;;;;;;;;4969363;28;20121;-74
2022/06/19 03:26:42;;;;;;;7.07;4.30;;;;;;;;;;4970685;28;20102;-73
2022/06/19 03:29:08;;;;;;;10.20;4.50;;;;;;;;;;4969257;28;20033;-73
2022/06/19 03:31:33;;;;;;;13.05;4.28;;;;;;;;;;4970484;28;20051;-74
2022/06/19 03:33:59;;;;;;;11.32;5.15;;;;;;;;;;4953326;28;20456;-73
2022/06/19 03:36:25;;;;;;;8.85;5.18;;;;;;;;;;4971504;28;20102;-75
2022/06/19 03:38:51;;;;;;;9.73;4.05;;;;;;;;;;4969466;28;20639;-74
2022/06/19 03:41:17;;;;;;;11.27;4.20;;;;;;;;;;4970786;28;20467;-73
2022/06/19 03:43:42;;;;;;;6.88;4.05;;;;;;;;;;4970621;28;20030;-74
2022/06/19 03:46:17;;;;;;;6.57;4.28;;;;;;;;;;4969448;28;20037;-73
2022/06/19 03:48:46;;;;;;;8.70;4.10;;;;;;;;;;4968959;28;20105;-74
2022/06/19 03:51:12;;;;;;;10.80;4.00;;;;;;;;;;4969113;28;20038;-73
2022/06/19 03:53:38;;;;;;;7.88;4.55;;;;;;;;;;4970219;28;20033;-74
2022/06/19 03:56:06;;;;;;;11.93;5.32;;;;;;;;;;4969265;28;20023;-73
2022/06/19 03:58:47;;;;;;;9.07;4.00;;;;;;;;;;4970930;28;20085;-74
2022/06/19 04:01:15;;;;;;;12.48;4.22;;;;;;;;;;4969171;28;20066;-73
2022/06/19 04:03:41;;;;;;;7.25;4.25;;;;;;;;;;4970536;28;20275;-73
2022/06/19 04:06:09;;;;;;;10.77;4.90;;;;;;;;;;4969041;28;20040;-74
2022/06/19 04:08:34;;;;;;;11.95;6.13;;;;;;;;;;4969162;28;20030;-74
2022/06/19 04:11:00;;;;;;;6.85;4.53;;;;;;;;;;4970208;28;20046;-73
2022/06/19 04:13:26;;;;;;;7.28;4.32;;;;;;;;;;4968913;28;20420;-74
2022/06/19 04:15:51;;;;;;;10.48;4.45;;;;;;;;;;4968782;28;20030;-73
2022/06/19 04:18:17;;;;;;;10.38;5.07;;;;;;;;;;4968871;28;20209;-73
2022/06/19 04:20:43;;;;;;;9.75;4.32;;;;;;;;;;4968845;28;20079;-74
2022/06/19 04:23:10;;;;;;;8.73;4.32;;;;;;;;;;4982750;28;20026;-73
2022/06/19 04:25:35;;;;;;;7.55;4.88;;;;;;;;;;4990770;28;20027;-73
2022/06/19 04:28:01;;;;;;;9.55;5.03;;;;;;;;;;4992245;28;20018;-74
2022/06/19 04:30:27;;;;;;;9.48;5.15;;;;;;;;;;4993975;28;20045;-74
2022/06/19 04:32:52;;;;;;;6.57;4.22;;;;;;;;;;4993174;28;20029;-72
2022/06/19 04:35:18;;;;;;;9.50;4.93;;;;;;;;;;4993377;28;20026;-74
2022/06/19 04:37:44;;;;;;;9.25;4.57;;;;;;;;;;4993052;28;20033;-73
2022/06/19 04:40:13;;;;;;;8.02;4.53;;;;;;;;;;4992070;28;20054;-73
2022/06/19 04:42:40;;;;;;;12.00;5.00;;;;;;;;;;4991793;28;20027;-73
2022/06/19 04:45:06;;;;;;;23.42;9.88;;;;;;;;;;4991803;28;20051;-72
2022/06/19 04:47:31;;;;;;;7.20;4.80;;;;;;;;;;4993360;28;20026;-73
2022/06/19 04:49:58;;;;;;;9.73;4.40;;;;;;;;;;4991648;28;20457;-72
2022/06/19 04:52:23;;;;;;;11.00;4.57;;;;;;;;;;4993175;28;20104;-73
2022/06/19 04:54:50;;;;;;;7.25;4.00;;;;;;;;;;4993246;28;20510;-74
2022/06/19 04:57:15;;;;;;;8.25;4.47;;;;;;;;;;4993262;28;20391;-73
2022/06/19 04:59:41;;;;;;;14.88;4.85;;;;;;;;;;4992765;28;20026;-74
2022/06/19 05:02:11;;;;;;;11.75;4.45;;;;;;;;;;4992916;28;20069;-74
2022/06/19 05:04:37;;;;;;;7.38;4.40;;;;;;;;;;4991604;28;20038;-74
2022/06/19 05:07:03;;;;;;;8.60;4.68;;;;;;;;;;4991656;28;20037;-76
2022/06/19 05:09:30;;;;;;;5.95;4.72;;;;;;;;;;4992740;28;20018;-74
2022/06/19 05:11:55;;;;;;;6.40;4.07;;;;;;;;;;4992590;28;20026;-73
2022/06/19 05:14:21;;;;;;;12.68;5.35;;;;;;;;;;4991374;28;20036;-74
2022/06/19 05:16:47;;;;;;;8.45;3.90;;;;;;;;;;4990998;28;20122;-75
2022/06/19 05:19:13;;;;;;;8.35;4.40;;;;;;;;;;4992696;28;20062;-74
2022/06/19 05:21:39;;;;;;;4.85;3.92;;;;;;;;;;4988984;28;20068;-74
2022/06/19 05:24:08;;;;;;;8.82;4.00;;;;;;;;;;4973518;28;20022;-74
2022/06/19 05:26:34;;;;;;;8.45;4.13;;;;;;;;;;4973274;28;20039;-74
2022/06/19 05:29:03;;;;;;;7.82;3.85;;;;;;;;;;4971645;28;20022;-74
2022/06/19 05:31:28;;;;;;;8.48;3.85;;;;;;;;;;4955234;28;20047;-73
2022/06/19 05:33:56;;;;;;;5.60;4.07;;;;;;;;;;4972855;28;20437;-76
2022/06/19 05:36:22;;;;;;;7.45;4.05;;;;;;;;;;4972491;28;20086;-74
2022/06/19 05:38:50;;;;;;;5.72;4.03;;;;;;;;;;4972807;28;20470;-73
2022/06/19 05:41:15;;;;;;;9.25;4.15;;;;;;;;;;4972781;28;20102;-73
2022/06/19 05:43:41;;;;;;;7.38;4.43;;;;;;;;;;4971592;28;20050;-73
2022/06/19 05:46:18;;;;;;;6.82;4.25;;;;;;;;;;4972299;28;20511;-73
2022/06/19 05:48:43;;;;;;;4.97;3.80;;;;;;;;;;4973947;28;20418;-74
2022/06/19 05:51:17;;;;;;;6.38;3.83;;;;;;;;;;4973602;28;20092;-74
2022/06/19 05:53:46;;;;;;;12.65;5.13;;;;;;;;;;4973106;28;20037;-73
2022/06/19 05:56:12;;;;;;;5.93;4.18;;;;;;;;;;4972677;28;20088;-74
2022/06/19 05:58:38;;;;;;;8.35;3.97;;;;;;;;;;4972995;28;20479;-73
2022/06/19 06:01:06;;;;;;;8.00;4.07;;;;;;;;;;4972393;28;20499;-72
2022/06/19 06:03:32;;;;;;;7.22;4.32;;;;;;;;;;4972630;28;20535;-74
2022/06/19 06:06:03;;;;;;;7.15;3.88;;;;;;;;;;4954615;28;20042;-74
2022/06/19 06:08:29;;;;;;;7.95;3.85;;;;;;;;;;4971256;28;20116;-73
2022/06/19 06:10:54;;;;;;;4.50;3.65;;;;;;;;;;4972255;28;21894;-74
2022/06/19 06:13:20;;;;;;;6.50;4.30;;;;;;;;;;4972623;28;20061;-74
2022/06/19 06:15:46;;;;;;;8.77;4.13;;;;;;;;;;4972198;28;20030;-74
2022/06/19 06:18:13;;;;;;;10.57;4.72;;;;;;;;;;4970873;28;20030;-74
2022/06/19 06:20:38;;;;;;;7.97;4.47;;;;;;;;;;4972109;28;20033;-75
2022/06/19 06:23:04;;;;;;;11.05;4.28;;;;;;;;;;4984896;28;20109;-73
2022/06/19 06:25:30;;;;;;;9.73;4.63;;;;;;;;;;4989966;28;20025;-74
2022/06/19 06:27:55;;;;;;;5.50;4.35;;;;;;;;;;4990008;28;20085;-73
2022/06/19 06:30:21;;;;;;;4.90;3.65;;;;;;;;;;4989932;28;20022;-73
2022/06/19 06:32:46;;;;;;;7.13;3.63;;;;;;;;;;4989547;28;20129;-73
2022/06/19 06:35:14;;;;;;;6.18;3.70;;;;;;;;;;4989929;28;20057;-74
2022/06/19 06:37:39;;;;;;;7.70;3.90;;;;;;;;;;4991726;28;20034;-74
2022/06/19 06:40:07;;;;;;;8.15;4.18;;;;;;;;;;4989636;28;20030;-74
2022/06/19 06:42:33;;;;;;;4.93;3.85;;;;;;;;;;4989903;28;20034;-73
2022/06/19 06:44:58;;;;;;;14.73;3.88;;;;;;;;;;4990903;28;20133;-74
2022/06/19 06:47:24;;;;;;;7.68;4.30;;;;;;;;;;4989707;28;20076;-74
2022/06/19 06:49:50;;;;;;;7.22;4.07;;;;;;;;;;4989826;28;20033;-74
2022/06/19 06:52:17;;;;;;;6.15;3.65;;;;;;;;;;4989207;28;20030;-73
2022/06/19 06:54:43;;;;;;;8.82;3.65;;;;;;;;;;4989369;28;20022;-73
2022/06/19 06:57:09;;;;;;;5.32;3.35;;;;;;;;;;4989550;28;20475;-74
2022/06/19 06:59:36;;;;;;;4.95;3.30;;;;;;;;;;4990975;28;20058;-73
2022/06/19 07:02:02;;;;;;;4.93;3.40;;;;;;;;;;4989438;28;20030;-74
2022/06/19 07:04:28;;;;;;;3.55;2.90;;;;;;;;;;4989584;28;20028;-73
2022/06/19 07:06:53;;;;;;;6.18;3.40;;;;;;;;;;5005820;28;20038;-74
2022/06/19 07:09:22;;;;;;;11.57;3.92;;;;;;;;;;4990589;28;20541;-73
2022/06/19 07:11:48;;;;;;;9.02;3.22;;;;;;;;;;4990524;28;20128;-73
2022/06/19 07:14:14;;;;;;;6.22;3.47;;;;;;;;;;4990817;28;20105;-73
2022/06/19 07:16:42;;;;;;;6.45;3.17;;;;;;;;;;4989319;28;20133;-74
2022/06/19 07:19:09;;;;;;;5.50;3.35;;;;;;;;;;4990785;28;20030;-73
2022/06/19 07:21:37;;;;;;;5.38;2.90;;;;;;;;;;4989317;28;20050;-73
2022/06/19 07:24:03;;;;;;;4.57;2.88;;;;;;;;;;4971194;28;20542;-74
2022/06/19 07:26:29;;;;;;;4.88;2.92;;;;;;;;;;4969660;28;20117;-74
2022/06/19 07:28:55;;;;;;;7.70;3.50;;;;;;;;;;4969598;28;20055;-74
2022/06/19 07:31:22;;;;;;;8.80;3.55;;;;;;;;;;4969004;28;20630;-74
2022/06/19 07:33:47;;;;;;;3.08;2.63;;;;;;;;;;4970438;28;20056;-74
2022/06/19 07:36:21;;;;;;;9.32;2.97;;;;;;;;;;4969201;28;20113;-74
2022/06/19 07:38:47;;;;;;;5.85;2.55;;;;;;;;;;4970537;28;20106;-73
2022/06/19 07:41:13;;;;;;;6.60;3.28;;;;;;;;;;4969591;28;20114;-74
2022/06/19 07:43:39;;;;;;;6.90;2.78;;;;;;;;;;4970864;28;20394;-73
2022/06/19 07:46:05;;;;;;;9.88;2.58;;;;;;;;;;4969085;28;20041;-74
2022/06/19 07:51:17;;;;;;;3.53;2.35;;;;;;;;;;4970296;28;20094;-74
2022/06/19 07:53:42;;;;;;;5.10;2.53;;;;;;;;;;4975837;28;20440;-74
2022/06/19 07:56:10;;;;;;;4.72;2.50;;;;;;;;;;4957882;28;20046;-74
2022/06/19 07:58:36;;;;;;;8.43;3.25;;;;;;;;;;4974341;28;20026;-74
2022/06/19 08:01:02;;;;;;;7.72;2.50;;;;;;;;;;4975802;28;20046;-75
2022/06/19 08:03:27;;;;;;;5.25;1.83;;;;;;;;;;4973340;28;20038;-74
2022/06/19 08:05:53;;;;;;;9.80;2.35;;;;;;;;;;4970467;28;20398;-74
2022/06/19 08:08:22;;;;;;;10.48;1.95;;;;;;;;;;4969541;28;20030;-74
2022/06/19 08:10:50;;;;;;;6.97;2.42;;;;;;;;;;4953087;28;20042;-73
2022/06/19 08:13:21;;;;;;;5.60;1.77;;;;;;;;;;4969459;28;20038;-74
2022/06/19 08:15:51;;;;;;;8.02;2.20;;;;;;;;;;4969828;28;20034;-73
2022/06/19 08:18:18;;;;;;;10.57;2.00;;;;;;;;;;4971779;28;20477;-75
2022/06/19 08:20:44;;;;;;;10.63;2.35;;;;;;;;;;4982555;28;20713;-75
2022/06/19 08:23:10;;;;;;;10.98;2.20;;;;;;;;;;4986509;28;20145;-74
2022/06/19 08:25:37;;;;;;;10.70;2.85;;;;;;;;;;4994207;28;20022;-74
2022/06/19 08:28:02;;;;;;;5.00;2.33;;;;;;;;;;4990897;28;20493;-74
2022/06/19 08:30:31;;;;;;;9.93;2.10;;;;;;;;;;4989964;28;20117;-73
2022/06/19 08:32:57;;;;;;;9.82;2.30;;;;;;;;;;4990521;28;20427;-75
2022/06/19 08:35:23;;;;;;;4.60;2.00;;;;;;;;;;4990459;28;20033;-75
2022/06/19 08:37:53;;;;;;;6.63;2.30;;;;;;;;;;5005296;28;20027;-74
2022/06/19 08:40:43;;;;;;;10.40;2.40;;;;;;;;;;4990182;28;20032;-74
2022/06/19 08:43:52;;;;;;;10.32;2.10;;;;;;;;;;4989804;28;20062;-74
2022/06/19 08:46:23;;;;;;;9.20;2.47;;;;;;;;;;4994449;28;20069;-74
2022/06/19 08:49:07;;;;;;;6.22;2.10;;;;;;;;;;4989663;28;20026;-73
2022/06/19 08:51:57;;;;;;;10.70;2.20;;;;;;;;;;4989272;28;20425;-74
2022/06/19 08:54:41;;;;;;;4.87;1.67;;;;;;;;;;4989332;28;20031;-75
2022/06/19 08:57:34;;;;;;;4.32;2.60;;;;;;;;;;4989121;28;20106;-74
2022/06/19 09:00:12;;;;;;;4.80;1.77;;;;;;;;;;4989170;28;20483;-74
2022/06/19 09:02:56;;;;;;;6.68;2.47;;;;;;;;;;4988492;28;20133;-74
2022/06/19 09:05:38;;;;;;;6.00;1.33;;;;;;;;;;4989539;28;20027;-74
2022/06/19 09:08:31;;;;;;;3.08;2.28;;;;;;;;;;4987547;28;20057;-74
2022/06/19 09:11:15;;;;;;;5.28;1.75;;;;;;;;;;4989263;28;20482;-73
2022/06/19 09:14:18;;;;;;;9.70;2.00;;;;;;;;;;4992709;28;20340;-74
2022/06/19 09:16:46;;;;;;;8.82;1.60;;;;;;;;;;4992838;28;20035;-73
2022/06/19 09:19:40;;;;;;;8.20;2.03;;;;;;;;;;4990993;28;20053;-74
2022/06/19 09:22:20;;;;;;;9.30;2.25;;;;;;;;;;4984721;28;20125;-74
2022/06/19 09:24:57;;;;;;;8.68;2.25;;;;;;;;;;4973565;28;20023;-74
2022/06/19 09:27:30;;;;;;;9.32;2.40;;;;;;;;;;4973352;28;20074;-73
2022/06/19 09:30:04;;;;;;;6.15;1.98;;;;;;;;;;4971808;28;20026;-74
2022/06/19 09:32:49;;;;;;;5.28;1.80;;;;;;;;;;4955485;28;20083;-75
2022/06/19 09:35:39;;;;;;;6.55;1.60;;;;;;;;;;4972795;28;20110;-75
2022/06/19 09:38:12;;;;;;;12.20;2.58;;;;;;;;;;4972761;28;20038;-74
2022/06/19 09:40:43;;;;;;;12.40;1.92;;;;;;;;;;4972870;28;20026;-74
2022/06/19 09:43:20;;;;;;;7.07;2.30;;;;;;;;;;4972794;28;20113;-74
2022/06/19 09:46:01;;;;;;;8.23;2.03;;;;;;;;;;4971569;28;20045;-74
2022/06/19 09:48:40;;;;;;;5.63;2.45;;;;;;;;;;4971518;28;20423;-75
2022/06/19 09:51:12;;;;;;;9.57;2.20;;;;;;;;;;4972525;28;20030;-75
2022/06/19 09:53:51;;;;;;;5.90;1.83;;;;;;;;;;4971001;28;20103;-73
2022/06/19 09:56:29;;;;;;;3.78;1.90;;;;;;;;;;4972427;28;20062;-76
2022/06/19 09:59:31;;;;;;;7.35;2.00;;;;;;;;;;4972403;28;20037;-77
2022/06/19 10:02:04;;;;;;;6.45;2.28;;;;;;;;;;4972327;28;20023;-76
2022/06/19 10:04:43;;;;;;;6.45;1.55;;;;;;;;;;4970843;28;20607;-76
2022/06/19 10:07:32;;;;;;;14.85;2.20;;;;;;;;;;4972124;28;20195;-77
2022/06/19 10:10:04;;;;;;;6.57;1.52;;;;;;;;;;4972267;28;20034;-76
2022/06/19 10:12:38;;;;;;;8.85;2.17;;;;;;;;;;4971065;28;20026;-75
2022/06/19 10:15:17;;;;;;;8.05;1.92;;;;;;;;;;4970877;28;20077;-76
2022/06/19 10:17:57;;;;;;;17.75;2.53;;;;;;;;;;4970954;28;20094;-75
2022/06/19 10:20:34;;;;;;;9.32;1.77;;;;;;;;;;4970941;28;20334;-76
2022/06/19 10:23:33;;;;;;;12.60;1.77;;;;;;;;;;4983626;28;20022;-76
2022/06/19 10:26:18;;;;;;;8.55;1.90;;;;;;;;;;4989838;28;20061;-76
2022/06/19 10:28:53;;;;;;;8.10;1.88;;;;;;;;;;4989864;28;20032;-75
2022/06/19 10:31:56;;;;;;;12.90;2.05;;;;;;;;;;4989667;28;20397;-76
2022/06/19 10:34:42;;;;;;;4.55;1.90;;;;;;;;;;4991411;28;20483;-77
2022/06/19 10:37:13;;;;;;;9.50;2.45;;;;;;;;;;4991237;28;20538;-78
2022/06/19 10:39:58;;;;;;;11.85;2.03;;;;;;;;;;4991257;28;20026;-77
2022/06/19 10:42:45;;;;;;;8.07;2.00;;;;;;;;;;4991115;28;20080;-77
2022/06/19 10:45:37;;;;;;;7.55;2.13;;;;;;;;;;4989454;28;20026;-78
2022/06/19 10:48:09;;;;;;;8.65;1.55;;;;;;;;;;4989536;28;20030;-76
2022/06/19 10:50:49;;;;;;;9.02;2.28;;;;;;;;;;4991426;28;20108;-76
2022/06/19 10:53:33;;;;;;;9.25;1.95;;;;;;;;;;4989585;28;20034;-76
2022/06/19 10:56:31;;;;;;;15.18;2.28;;;;;;;;;;4989589;28;20025;-78
2022/06/19 10:58:58;;;;;;;10.95;1.85;;;;;;;;;;4991268;28;20034;-77
2022/06/19 11:04:22;;;;;;;5.85;1.60;;;;;;;;;;4991070;28;20045;-76
2022/06/19 11:07:04;;;;;;;11.15;2.20;;;;;;;;;;4990111;28;20478;-76
2022/06/19 11:09:47;;;;;;;9.77;2.05;;;;;;;;;;4991086;28;20034;-77
2022/06/19 11:12:29;;;;;;;9.02;1.92;;;;;;;;;;4989148;28;20038;-76
2022/06/19 11:14:57;;;;;;;7.30;2.20;;;;;;;;;;4989621;28;20413;-76
2022/06/19 11:17:39;;;;;;;10.63;1.95;;;;;;;;;;4990494;28;20034;-76
2022/06/19 11:20:16;;;;;;;11.68;2.22;;;;;;;;;;4989154;28;20139;-75
2022/06/19 11:22:45;;;;;;;7.38;1.90;;;;;;;;;;4978795;28;20029;-76
2022/06/19 11:25:20;;;;;;;15.50;2.92;;;;;;;;;;4969656;28;20038;-75
2022/06/19 11:28:01;;;;;;;11.35;2.10;;;;;;;;;;4970839;28;20066;-77
2022/06/19 11:30:39;;;;;;;;;;;;;;;;;;4971643;28;20552;-78
2022/06/19 11:33:17;;;;;;;14.48;2.38;;;;;;;;;;4971521;28;19914;-76
2022/06/19 11:35:49;;;;;;;9.48;2.13;;;;;;;;;;4971754;28;20030;-76
2022/06/19 11:38:33;;;;;;;14.52;2.80;;;;;;;;;;4969996;28;20112;-77
2022/06/19 11:41:00;;;;;;;12.18;2.47;;;;;;;;;;4969374;28;20030;-76
2022/06/19 11:43:30;;;;;;;11.98;1.98;;;;;;;;;;4969410;28;20038;-77
2022/06/19 11:46:15;;;;;;;11.05;2.00;;;;;;;;;;4970758;28;20030;-76
2022/06/19 11:48:40;;;;;;;6.95;1.90;;;;;;;;;;4969486;28;20051;-77
2022/06/19 11:51:17;;;;;;;9.50;1.98;;;;;;;;;;4970315;28;20364;-77
2022/06/19 11:53:43;;;;;;;11.38;2.20;;;;;;;;;;4969618;28;20129;-77
2022/06/19 11:56:22;;;;;;;15.07;2.50;;;;;;;;;;4970599;28;20039;-76
2022/06/19 11:59:00;;;;;;;12.68;2.50;;;;;;;;;;4970613;28;20061;-76
2022/06/19 12:01:42;;;;;;;14.38;2.78;;;;;;;;;;4969604;28;20670;-77
2022/06/19 12:04:30;;;;;;;10.75;2.92;;;;;;;;;;4969185;28;20492;-76
2022/06/19 12:07:12;;;;;;;10.73;2.40;;;;;;;;;;4969667;28;20035;-77
2022/06/19 12:09:42;;;;;;;7.80;2.10;;;;;;;;;;4982148;28;20027;-76
2022/06/19 12:12:17;;;;;;;5.28;2.17;;;;;;;;;;4975303;28;20046;-76
2022/06/19 12:14:46;;;;;;;9.50;2.30;;;;;;;;;;4970434;28;20055;-78
2022/06/19 12:17:24;;;;;;;9.73;2.45;;;;;;;;;;4968747;28;20109;-77
2022/06/19 12:20:07;;;;;;;11.40;2.25;;;;;;;;;;4970645;28;20360;-77
2022/06/19 12:22:50;;;;;;;11.15;2.28;;;;;;;;;;4979331;28;20026;-75
2022/06/19 12:25:44;;;;;;;9.38;2.08;;;;;;;;;;4989833;28;20030;-78
2022/06/19 12:28:19;;;;;;;13.82;1.77;;;;;;;;;;4995748;28;20035;-76
2022/06/19 12:30:47;;;;;;;10.82;2.28;;;;;;;;;;4989567;28;20042;-77
2022/06/19 12:33:35;;;;;;;12.15;2.55;;;;;;;;;;4988278;28;20483;-75
2022/06/19 12:36:01;;;;;;;6.45;1.80;;;;;;;;;;4989927;28;20030;-76
2022/06/19 12:38:34;;;;;;;12.05;2.03;;;;;;;;;;4988318;28;20124;-77
2022/06/19 12:41:43;;;;;;;16.27;2.30;;;;;;;;;;4989861;28;20054;-76
2022/06/19 12:44:30;;;;;;;10.05;2.20;;;;;;;;;;5020552;28;20124;-76
2022/06/19 12:47:20;;;;;;;11.45;2.15;;;;;;;;;;4991693;28;20501;-76
2022/06/19 12:50:13;;;;;;;12.35;1.92;;;;;;;;;;4991910;28;20502;-75
2022/06/19 12:52:48;;;;;;;17.42;2.83;;;;;;;;;;4992618;28;20030;-75
2022/06/19 12:55:41;;;;;;;12.88;2.92;;;;;;;;;;4992005;28;20377;-76
2022/06/19 12:58:25;;;;;;;12.32;2.08;;;;;;;;;;4993198;28;20032;-76
2022/06/19 13:00:59;;;;;;;10.52;1.88;;;;;;;;;;4991867;28;20030;-76
2022/06/19 13:03:31;;;;;;;6.60;2.00;;;;;;;;;;4993164;28;20088;-75
2022/06/19 13:06:07;;;;;;;8.40;2.22;;;;;;;;;;4992996;28;20029;-77
2022/06/19 13:08:54;;;;;;;17.02;2.85;;;;;;;;;;4991674;28;20165;-77
2022/06/19 13:11:33;;;;;;;12.68;2.42;;;;;;;;;;4998839;28;20030;-77
2022/06/19 13:14:11;;;;;;;13.35;2.22;;;;;;;;;;5001986;28;20023;-77
2022/06/19 13:16:46;;;;;;;7.28;2.25;;;;;;;;;;5002920;28;20469;-78
2022/06/19 13:19:42;;;;;;;11.32;2.33;;;;;;;;;;5005618;28;20050;-76
2022/06/19 13:22:38;;;;;;;12.30;2.45;;;;;;;;;;4992721;28;20479;-77
2022/06/19 13:25:06;;;;;;;14.48;2.53;;;;;;;;;;4974662;28;20037;-76
2022/06/19 13:28:04;;;;;;;12.02;2.45;;;;;;;;;;4972503;28;20506;-77
2022/06/19 13:30:42;;;;;;;15.10;2.33;;;;;;;;;;4957573;28;20035;-78
2022/06/19 13:33:32;;;;;;;7.82;2.15;;;;;;;;;;4972432;28;20023;-78
2022/06/19 13:36:05;;;;;;;13.25;2.33;;;;;;;;;;4972102;28;20026;-77
2022/06/19 13:39:02;;;;;;;9.82;2.10;;;;;;;;;;4972133;28;20035;-77
2022/06/19 13:41:37;;;;;;;7.57;2.33;;;;;;;;;;4973343;28;20168;-77
2022/06/19 13:44:42;;;;;;;10.43;2.53;;;;;;;;;;4973793;28;20026;-77
2022/06/19 13:47:29;;;;;;;13.25;2.10;;;;;;;;;;4959950;28;20502;-78
2022/06/19 13:50:22;;;;;;;14.68;2.53;;;;;;;;;;4971623;28;20558;-76
2022/06/19 13:52:48;;;;;;;12.73;2.90;;;;;;;;;;4971462;28;20018;-76
2022/06/19 13:55:28;;;;;;;19.25;3.03;;;;;;;;;;4972684;28;20664;-76
2022/06/19 13:58:23;;;;;;;9.32;2.28;;;;;;;;;;4970354;28;20041;-76
2022/06/19 14:01:14;;;;;;;13.52;2.75;;;;;;;;;;4972753;28;20077;-77
2022/06/19 14:07:11;;;;;;;11.27;3.15;;;;;;;;;;4972881;28;20391;-74
2022/06/19 14:09:47;;;;;;;10.38;2.75;;;;;;;;;;4971285;28;20045;-75
2022/06/19 14:12:17;;;;;;;15.40;2.30;;;;;;;;;;4970790;28;20577;-74
2022/06/19 14:14:45;;;;;;;15.57;3.30;;;;;;;;;;4973222;28;20117;-73
2022/06/19 14:17:49;;;;;;;17.55;3.55;;;;;;;;;;4973246;28;20026;-75
2022/06/19 14:20:31;;;;;;;10.57;2.70;;;;;;;;;;4971114;28;20116;-75
2022/06/19 14:23:06;;;;;;;8.95;2.78;;;;;;;;;;4983180;28;20026;-75
2022/06/19 14:25:47;;;;;;;11.70;2.78;;;;;;;;;;4990382;28;20425;-75
2022/06/19 14:28:22;;;;;;;10.63;2.75;;;;;;;;;;4990571;28;20029;-75
2022/06/19 14:30:53;;;;;;;14.65;2.70;;;;;;;;;;4991810;28;20073;-75
2022/06/19 14:33:48;;;;;;;13.18;2.88;;;;;;;;;;4990202;28;20026;-75
2022/06/19 14:36:29;;;;;;;10.73;2.78;;;;;;;;;;4994847;28;20060;-75
2022/06/19 14:39:19;;;;;;;11.63;2.90;;;;;;;;;;4989926;28;20676;-75
2022/06/19 14:41:56;;;;;;;13.98;2.53;;;;;;;;;;4992470;28;20030;-76
2022/06/19 14:44:22;;;;;;;15.63;2.55;;;;;;;;;;4991219;28;20486;-74
2022/06/19 14:47:22;;;;;;;12.70;2.75;;;;;;;;;;4989772;28;20026;-75
2022/06/19 14:50:06;;;;;;;12.30;2.65;;;;;;;;;;4991173;28;20311;-74
2022/06/19 14:53:00;;;;;;;9.55;2.92;;;;;;;;;;4991071;28;20479;-74
2022/06/19 14:55:51;;;;;;;13.52;2.97;;;;;;;;;;4989823;28;20034;-76
2022/06/19 14:58:21;;;;;;;16.55;3.10;;;;;;;;;;4989614;28;20550;-75
2022/06/19 15:00:59;;;;;;;14.43;3.00;;;;;;;;;;4989616;28;20085;-75
2022/06/19 15:03:45;;;;;;;15.80;3.37;;;;;;;;;;4991085;28;20113;-76
2022/06/19 15:06:39;;;;;;;14.98;2.78;;;;;;;;;;4989591;28;20026;-75
2022/06/19 15:09:10;;;;;;;11.88;3.10;;;;;;;;;;4991300;28;20446;-74
2022/06/19 15:11:39;;;;;;;10.23;3.13;;;;;;;;;;4994048;28;20027;-75
2022/06/19 15:14:25;;;;;;;12.13;2.60;;;;;;;;;;4993618;28;20185;-75
2022/06/19 15:17:00;;;;;;;11.35;3.00;;;;;;;;;;4990935;28;20026;-75
2022/06/19 15:19:40;;;;;;;13.70;2.88;;;;;;;;;;4990871;28;20053;-75
2022/06/19 15:22:24;;;;;;;13.02;2.97;;;;;;;;;;4984974;28;20018;-75
2022/06/19 15:24:56;;;;;;;12.63;3.28;;;;;;;;;;4971194;28;20082;-74